createdAt,value
2022-08-26T00:04:32.559Z,18.17
2022-08-26T00:10:21.375Z,17.89
2022-08-26T00:16:14.894Z,17.71
2022-08-26T00:28:40.351Z,17.57
2022-08-26T00:34:27.715Z,17.39
2022-08-26T00:40:18.935Z,17.79
2022-08-26T00:46:11.857Z,17.84
2022-08-26T00:52:03.148Z,17.67
2022-08-26T00:57:51.281Z,17.66
2022-08-26T01:03:39.267Z,17.61
2022-08-26T01:09:26.966Z,17.44
2022-08-26T01:15:20.402Z,17.68
2022-08-26T01:21:36.426Z,17.66
2022-08-26T01:27:35.497Z,17.62
2022-08-26T01:33:42.379Z,17.43
2022-08-26T01:39:52.039Z,17.34
2022-08-26T01:45:41.140Z,17.26
2022-08-26T01:51:31.937Z,17.23
2022-08-26T01:57:28.371Z,17.16
2022-08-26T02:03:24.556Z,17.12
2022-08-26T02:09:16.501Z,17.09
2022-08-26T02:15:11.143Z,17.01
2022-08-26T02:20:59.198Z,16.88
2022-08-26T02:26:55.413Z,16.87
2022-08-26T02:32:49.830Z,16.76
2022-08-26T02:38:37.156Z,16.75
2022-08-26T02:44:24.300Z,16.64
2022-08-26T02:50:12.857Z,16.64
2022-08-26T02:55:59.979Z,16.62
2022-08-26T03:01:49.836Z,16.62
2022-08-26T03:07:37.169Z,16.58
2022-08-26T03:13:26.901Z,16.49
2022-08-26T03:19:17.609Z,16.41
2022-08-26T03:25:07.185Z,16.40
2022-08-26T03:30:54.237Z,16.25
2022-08-26T03:36:41.630Z,16.21
2022-08-26T03:42:29.328Z,16.09
2022-08-26T03:48:16.222Z,16.07
2022-08-26T03:54:04.152Z,15.97
2022-08-26T03:59:53.059Z,15.97
2022-08-26T04:05:40.575Z,15.83
2022-08-26T04:11:34.114Z,15.71
2022-08-26T04:17:24.864Z,15.46
2022-08-26T04:23:16.778Z,15.39
2022-08-26T04:29:10.057Z,15.36
2022-08-26T04:34:56.942Z,15.50
2022-08-26T04:40:48.086Z,15.47
2022-08-26T04:46:36.464Z,15.51
2022-08-26T04:52:30.958Z,15.43
2022-08-26T04:58:20.015Z,15.48
2022-08-26T05:04:08.190Z,15.34
2022-08-26T05:09:55.597Z,15.45
2022-08-26T05:15:43.461Z,15.46
2022-08-26T05:21:32.434Z,15.58
2022-08-26T05:27:19.633Z,15.69
2022-08-26T05:33:08.221Z,15.64
2022-08-26T05:38:56.401Z,15.65
2022-08-26T05:44:55.634Z,15.66
2022-08-26T05:50:49.445Z,15.75
2022-08-26T05:56:36.969Z,15.77
2022-08-26T06:02:24.183Z,15.71
2022-08-26T06:08:11.265Z,15.72
2022-08-26T06:14:03.936Z,15.85
2022-08-26T06:19:51.105Z,15.73
2022-08-26T06:25:39.369Z,15.91
2022-08-26T06:31:27.309Z,16.07
2022-08-26T06:37:15.442Z,16.23
2022-08-26T06:43:04.333Z,16.09
2022-08-26T06:48:53.432Z,16.11
2022-08-26T06:54:43.193Z,16.22
2022-08-26T07:00:33.311Z,16.42
2022-08-26T07:06:20.942Z,16.60
2022-08-26T07:12:10.855Z,16.28
2022-08-26T07:17:57.708Z,16.48
2022-08-26T07:23:45.336Z,16.48
2022-08-26T07:29:34.948Z,16.68
2022-08-26T07:35:21.803Z,16.93
2022-08-26T07:41:13.302Z,17.45
2022-08-26T07:47:00.696Z,17.45
2022-08-26T07:52:48.248Z,17.70
2022-08-26T07:58:35.518Z,18.72
2022-08-26T08:04:26.662Z,19.69
2022-08-26T08:10:20.975Z,20.48
2022-08-26T08:16:20.324Z,20.02
2022-08-26T08:28:57.565Z,21.32
2022-08-26T08:34:44.957Z,22.13
2022-08-26T08:40:33.021Z,22.06
2022-08-26T08:46:20.632Z,22.26
2022-08-26T08:52:23.214Z,22.84
2022-08-26T08:58:24.430Z,22.80
2022-08-26T09:12:18.367Z,23.78
2022-08-26T09:19:18.818Z,24.04
2022-08-26T09:25:11.556Z,23.61
2022-08-26T09:31:13.174Z,23.82
2022-08-26T09:37:00.193Z,24.75
2022-08-26T09:43:22.165Z,24.30
2022-08-26T09:49:41.103Z,25.13
2022-08-26T09:55:35.515Z,25.43
2022-08-26T10:01:42.091Z,25.33
2022-08-26T10:07:44.576Z,25.80
2022-08-26T10:14:13.805Z,25.76
2022-08-26T10:20:25.615Z,26.24
2022-08-26T10:27:05.350Z,26.00
2022-08-26T10:33:31.933Z,26.18
2022-08-26T10:40:04.285Z,25.95
2022-08-26T10:46:02.470Z,25.56
2022-08-26T10:59:45.090Z,24.86
2022-08-26T11:05:40.318Z,25.37
2022-08-26T11:11:51.763Z,24.80
2022-08-26T11:17:45.561Z,23.86
2022-08-26T11:23:37.805Z,24.09
2022-08-26T11:38:04.304Z,24.57
2022-08-26T11:51:40.179Z,26.39
2022-08-26T11:58:11.298Z,27.03
2022-08-26T12:04:30.477Z,26.27
2022-08-26T12:10:33.794Z,25.72
2022-08-26T12:16:48.246Z,25.61
2022-08-26T12:22:36.194Z,25.66
2022-08-26T12:28:50.448Z,26.18
2022-08-26T12:34:49.104Z,26.74
2022-08-26T12:40:50.774Z,26.52
2022-08-26T12:46:50.062Z,25.35
2022-08-26T12:52:52.931Z,25.90
2022-08-26T12:58:40.386Z,26.35
2022-08-26T13:04:37.268Z,26.39
2022-08-26T13:10:41.785Z,26.63
2022-08-26T13:16:29.197Z,26.69
2022-08-26T13:22:22.126Z,26.77
2022-08-26T13:28:17.134Z,26.97
2022-08-26T13:34:15.316Z,26.52
2022-08-26T13:40:07.760Z,26.42
2022-08-26T13:47:01.641Z,26.50
2022-08-26T13:53:18.927Z,26.34
2022-08-26T13:59:07.154Z,26.41
2022-08-26T14:05:16.452Z,26.48
2022-08-26T14:11:03.450Z,26.46
2022-08-26T14:17:26.305Z,26.24
2022-08-26T14:24:22.472Z,26.25
2022-08-26T14:31:18.227Z,25.38
2022-08-26T14:38:19.927Z,24.87
2022-08-26T14:44:32.143Z,24.63
2022-08-26T14:50:42.522Z,24.75
2022-08-26T14:56:33.851Z,24.80
2022-08-26T15:02:33.556Z,24.91
2022-08-26T15:08:20.856Z,24.55
2022-08-26T15:14:08.782Z,24.21
2022-08-26T15:20:10.624Z,24.41
2022-08-26T15:25:57.390Z,24.47
2022-08-26T15:31:44.936Z,23.97
2022-08-26T15:37:32.573Z,24.10
2022-08-26T15:43:28.876Z,24.53
2022-08-26T15:49:18.786Z,24.74
2022-08-26T15:55:09.334Z,24.81
2022-08-26T16:00:56.695Z,24.80
2022-08-26T16:06:47.539Z,24.73
2022-08-26T16:12:34.431Z,24.59
2022-08-26T16:18:23.543Z,24.54
2022-08-26T16:24:10.996Z,24.88
2022-08-26T16:29:58.645Z,24.62
2022-08-26T16:35:48.007Z,24.63
2022-08-26T16:41:35.719Z,24.59
2022-08-26T16:47:23.843Z,24.70
2022-08-26T16:58:58.540Z,24.49
2022-08-26T17:04:50.333Z,24.53
2022-08-26T17:10:40.718Z,24.42
2022-08-26T17:16:28.003Z,24.46
2022-08-26T17:22:16.629Z,23.95
2022-08-26T17:28:04.103Z,24.10
2022-08-26T17:34:00.814Z,23.86
2022-08-26T17:39:52.730Z,23.56
2022-08-26T17:45:46.347Z,23.37
2022-08-26T17:51:35.649Z,23.38
2022-08-26T17:57:23.865Z,23.20
2022-08-26T18:03:11.819Z,23.09
2022-08-26T18:09:11.322Z,23.17
2022-08-26T18:14:58.458Z,23.03
2022-08-26T18:20:45.937Z,23.35
2022-08-26T18:26:41.061Z,23.40
2022-08-26T18:32:28.428Z,23.32
2022-08-26T18:38:17.762Z,23.36
2022-08-26T18:44:12.971Z,23.51
2022-08-26T18:50:03.510Z,23.52
2022-08-26T18:55:51.088Z,23.33
2022-08-26T19:01:42.720Z,23.17
2022-08-26T19:07:29.752Z,22.95
2022-08-26T19:13:17.542Z,22.82
2022-08-26T19:19:06.213Z,22.88
2022-08-26T19:24:53.251Z,22.66
2022-08-26T19:30:45.260Z,22.55
2022-08-26T19:36:33.155Z,22.56
2022-08-26T19:42:22.979Z,22.47
2022-08-26T19:48:29.156Z,22.61
2022-08-26T19:54:17.232Z,22.80
2022-08-26T20:00:08.919Z,22.91
2022-08-26T20:06:18.686Z,22.90
2022-08-26T20:12:12.962Z,23.00
2022-08-26T20:18:01.439Z,22.90
2022-08-26T20:23:48.798Z,22.88
2022-08-26T20:29:37.307Z,22.75
2022-08-26T20:35:34.240Z,22.65
2022-08-26T20:41:22.135Z,22.26
2022-08-26T20:47:10.525Z,22.22
2022-08-26T20:52:59.458Z,22.24
2022-08-26T20:58:46.364Z,22.32
2022-08-26T21:04:33.718Z,22.26
2022-08-26T21:10:23.083Z,22.35
2022-08-26T21:16:13.776Z,22.43
2022-08-26T21:22:01.006Z,22.41
2022-08-26T21:27:48.042Z,22.31
2022-08-26T21:33:35.545Z,22.11
2022-08-26T21:39:25.696Z,21.87
2022-08-26T21:45:12.863Z,21.82
2022-08-26T21:50:59.806Z,21.72
2022-08-26T21:56:50.383Z,21.62
2022-08-26T22:02:37.623Z,21.43
2022-08-26T22:08:24.523Z,21.31
2022-08-26T22:14:17.436Z,20.99
2022-08-26T22:20:06.284Z,20.98
2022-08-26T22:25:58.386Z,20.93
2022-08-26T22:31:45.746Z,20.68
2022-08-26T22:37:32.992Z,20.42
2022-08-26T22:43:20.322Z,20.38
2022-08-26T22:49:15.808Z,20.17
2022-08-26T22:55:10.992Z,20.15
2022-08-26T23:01:01.066Z,20.10
2022-08-26T23:06:52.883Z,20.06
2022-08-26T23:12:40.845Z,19.91
2022-08-26T23:19:03.020Z,19.91
2022-08-26T23:24:50.223Z,19.76
2022-08-26T23:30:37.375Z,19.70
2022-08-26T23:36:28.043Z,19.65
2022-08-26T23:42:22.976Z,19.64
2022-08-26T23:48:10.395Z,19.57
2022-08-26T23:53:57.996Z,19.51
2022-08-26T23:59:45.007Z,19.52
